createdAt,value
2019-03-16T00:00:05.998Z,97893.20
2019-03-16T00:05:13.211Z,97901.76
2019-03-16T00:10:20.231Z,97901.97
2019-03-16T00:15:25.475Z,97899.55
2019-03-16T00:20:30.825Z,97919.13
2019-03-16T00:25:36.030Z,97916.89
2019-03-16T00:30:41.317Z,97916.53
2019-03-16T00:35:47.236Z,97919.30
2019-03-16T00:40:53.217Z,97927.78
2019-03-16T00:45:58.928Z,97927.63
2019-03-16T00:51:04.130Z,97916.39
2019-03-16T00:56:09.418Z,97918.78
2019-03-16T01:01:17.232Z,97926.75
2019-03-16T01:06:23.070Z,97927.45
2019-03-16T01:11:28.666Z,97932.69
2019-03-16T01:16:33.928Z,97929.50
2019-03-16T01:21:39.669Z,97942.48
2019-03-16T01:26:44.877Z,97940.53
2019-03-16T01:31:50.296Z,97936.30
2019-03-16T01:36:55.933Z,97940.91
2019-03-16T01:42:01.226Z,97949.28
2019-03-16T01:47:06.495Z,97953.66
2019-03-16T01:52:11.739Z,97948.25
2019-03-16T01:57:17.391Z,97944.55
2019-03-16T02:02:23.021Z,97928.95
2019-03-16T02:07:28.312Z,97932.38
2019-03-16T02:12:33.526Z,97933.81
2019-03-16T02:17:38.795Z,97930.09
2019-03-16T02:22:44.486Z,97940.21
2019-03-16T02:27:49.696Z,97942.31
2019-03-16T02:33:11.042Z,97953.64
2019-03-16T02:38:02.360Z,97946.18
2019-03-16T02:43:07.599Z,97940.28
2019-03-16T02:48:12.879Z,97945.59
2019-03-16T02:53:18.089Z,97947.08
2019-03-16T02:58:23.334Z,97942.38
2019-03-16T03:03:30.212Z,97946.36
2019-03-16T03:08:35.465Z,97929.77
2019-03-16T03:13:40.796Z,97928.13
2019-03-16T03:18:49.325Z,97925.04
2019-03-16T03:23:52.980Z,97919.48
2019-03-16T03:28:58.533Z,97921.76
2019-03-16T03:34:03.967Z,97921.24
2019-03-16T03:39:11.673Z,97915.34
2019-03-16T03:44:16.933Z,97908.78
2019-03-16T03:49:22.588Z,97908.88
2019-03-16T03:54:28.202Z,97918.16
2019-03-16T03:59:33.676Z,97918.58
2019-03-16T04:04:39.040Z,97921.41
2019-03-16T04:09:44.252Z,97929.36
2019-03-16T04:14:49.465Z,97931.41
2019-03-16T04:19:54.845Z,97935.08
2019-03-16T04:25:00.482Z,97941.77
2019-03-16T04:30:05.805Z,97938.96
2019-03-16T04:35:12.186Z,97943.66
2019-03-16T04:40:17.472Z,97943.73
2019-03-16T04:45:22.678Z,97940.91
2019-03-16T04:50:28.137Z,97943.70
2019-03-16T04:55:33.543Z,97943.81
2019-03-16T05:00:38.788Z,97939.84
2019-03-16T05:05:44.057Z,97937.88
2019-03-16T05:10:50.902Z,97944.52
2019-03-16T05:15:56.236Z,97935.03
2019-03-16T05:21:01.513Z,97939.67
2019-03-16T05:26:06.737Z,97929.81
2019-03-16T05:31:11.999Z,97936.66
2019-03-16T05:36:17.302Z,97938.48
2019-03-16T05:47:32.652Z,97945.24
2019-03-16T05:52:37.998Z,97953.19
2019-03-16T05:57:43.359Z,97940.64
2019-03-16T06:02:48.575Z,97946.82
2019-03-16T06:07:53.931Z,97956.94
2019-03-16T06:12:59.183Z,97950.19
2019-03-16T06:18:04.405Z,97953.47
2019-03-16T06:23:09.647Z,97938.33
2019-03-16T06:28:14.942Z,97948.42
2019-03-16T06:33:20.542Z,97943.55
2019-03-16T06:38:25.877Z,97936.53
2019-03-16T06:43:31.156Z,97933.81
2019-03-16T06:48:36.592Z,97934.02
2019-03-16T06:53:41.851Z,97939.42
2019-03-16T06:58:47.738Z,97946.75
2019-03-16T07:03:52.977Z,97948.09
2019-03-16T07:08:58.182Z,97937.52
2019-03-16T07:14:04.127Z,97940.00
2019-03-16T07:19:09.411Z,97947.22
2019-03-16T07:24:14.635Z,97944.23
2019-03-16T07:29:19.823Z,97939.69
2019-03-16T07:34:25.111Z,97948.85
2019-03-16T07:39:30.344Z,97956.91
2019-03-16T07:50:40.304Z,97972.14
2019-03-16T07:55:45.579Z,97964.43
2019-03-16T08:00:51.855Z,97971.48
2019-03-16T08:05:57.215Z,97969.63
2019-03-16T08:11:02.522Z,97970.62
2019-03-16T08:16:07.912Z,97971.16
2019-03-16T08:21:13.212Z,97965.13
2019-03-16T08:26:18.473Z,97964.48
2019-03-16T08:31:24.051Z,97962.05
2019-03-16T08:36:29.596Z,97946.11
2019-03-16T08:41:34.975Z,97949.53
2019-03-16T08:46:40.607Z,97947.48
2019-03-16T08:51:46.025Z,97949.45
2019-03-16T08:56:51.578Z,97962.91
2019-03-16T09:01:57.852Z,97966.63
2019-03-16T09:07:03.308Z,97963.09
2019-03-16T09:12:10.564Z,97968.02
2019-03-16T09:17:17.674Z,97964.87
2019-03-16T09:22:22.984Z,97966.89
2019-03-16T09:27:31.520Z,97967.95
2019-03-16T09:32:35.379Z,97978.91
2019-03-16T09:37:40.770Z,97971.61
2019-03-16T09:42:46.373Z,97984.99
2019-03-16T09:47:51.862Z,97980.99
2019-03-16T09:53:00.262Z,97984.28
2019-03-16T09:58:05.743Z,97982.08
2019-03-16T10:03:11.098Z,97987.41
2019-03-16T10:08:19.020Z,97963.64
2019-03-16T10:13:23.529Z,97957.95
2019-03-16T10:18:29.183Z,97954.51
2019-03-16T10:23:34.582Z,97947.67
2019-03-16T10:28:43.805Z,97938.93
2019-03-16T10:33:47.240Z,97932.22
2019-03-16T10:38:52.802Z,97944.34
2019-03-16T10:43:58.190Z,97945.28
2019-03-16T10:49:03.643Z,97940.31
2019-03-16T10:54:11.192Z,97936.13
2019-03-16T10:59:16.735Z,97944.86
2019-03-16T11:04:22.096Z,97933.17
2019-03-16T11:09:28.372Z,97938.34
2019-03-16T11:14:36.089Z,97952.56
2019-03-16T11:19:41.305Z,97950.87
2019-03-16T11:24:46.653Z,97943.92
2019-03-16T11:29:51.963Z,97952.27
2019-03-16T11:34:57.209Z,97948.29
2019-03-16T11:40:02.511Z,97937.28
2019-03-16T11:45:07.929Z,97936.16
2019-03-16T11:50:13.957Z,97931.97
2019-03-16T11:55:19.468Z,97931.09
2019-03-16T12:00:24.912Z,97917.01
2019-03-16T12:05:30.282Z,97912.23
2019-03-16T12:10:36.948Z,97900.72
2019-03-16T12:15:42.345Z,97920.28
2019-03-16T12:20:47.573Z,97907.97
2019-03-16T12:25:53.149Z,97919.46
2019-03-16T12:30:58.583Z,97904.37
2019-03-16T12:36:03.854Z,97900.64
2019-03-16T12:41:09.180Z,97887.23
2019-03-16T12:46:14.647Z,97893.73
2019-03-16T12:51:21.816Z,97887.89
2019-03-16T12:56:27.213Z,97871.47
2019-03-16T13:01:32.592Z,97880.75
2019-03-16T13:06:38.231Z,97873.14
2019-03-16T13:11:43.567Z,97885.57
2019-03-16T13:16:49.025Z,97867.54
2019-03-16T13:21:54.277Z,97863.46
2019-03-16T13:26:59.717Z,97849.86
2019-03-16T13:32:04.985Z,97846.64
2019-03-16T13:37:11.648Z,97848.70
2019-03-16T13:42:18.108Z,97859.83
2019-03-16T13:47:23.457Z,97863.06
2019-03-16T13:52:30.361Z,97874.19
2019-03-16T13:57:35.597Z,97859.48
2019-03-16T14:02:41.250Z,97856.62
2019-03-16T14:07:46.796Z,97855.38
2019-03-16T14:12:52.242Z,97851.02
2019-03-16T14:17:58.335Z,97853.57
2019-03-16T14:23:05.696Z,97844.36
2019-03-16T14:28:13.609Z,97861.32
2019-03-16T14:33:20.694Z,97840.36
2019-03-16T14:38:26.469Z,97839.19
2019-03-16T14:43:33.599Z,97830.71
2019-03-16T14:48:43.338Z,97834.11
2019-03-16T14:53:49.371Z,97820.03
2019-03-16T14:58:55.660Z,97836.60
2019-03-16T15:04:01.037Z,97808.63
2019-03-16T15:09:08.268Z,97812.52
2019-03-16T15:14:21.617Z,97813.21
2019-03-16T15:19:21.139Z,97803.11
2019-03-16T15:24:27.152Z,97799.46
2019-03-16T15:29:32.460Z,97803.24
2019-03-16T15:34:37.802Z,97805.31
2019-03-16T15:39:43.709Z,97794.97
2019-03-16T15:44:49.648Z,97789.92
2019-03-16T15:49:58.520Z,97790.73
2019-03-16T15:55:03.156Z,97775.09
2019-03-16T16:00:10.660Z,97786.44
2019-03-16T16:05:16.115Z,97774.70
2019-03-16T16:10:21.519Z,97751.79
2019-03-16T16:15:27.072Z,97757.16
2019-03-16T16:20:32.432Z,97755.83
2019-03-16T16:25:38.525Z,97753.86
2019-03-16T16:30:44.546Z,97741.23
2019-03-16T16:35:50.029Z,97738.22
2019-03-16T16:40:55.307Z,97733.75
2019-03-16T16:46:00.543Z,97732.45
2019-03-16T16:51:05.754Z,97730.19
2019-03-16T16:56:11.020Z,97726.00
2019-03-16T17:01:28.403Z,97722.83
2019-03-16T17:06:23.329Z,97725.82
2019-03-16T17:11:28.846Z,97721.75
2019-03-16T17:16:34.566Z,97710.70
2019-03-16T17:21:40.059Z,97707.79
2019-03-16T17:26:45.318Z,97708.40
2019-03-16T17:31:50.503Z,97702.55
2019-03-16T17:36:55.712Z,97703.88
2019-03-16T17:42:07.934Z,97698.42
2019-03-16T17:47:13.333Z,97690.17
2019-03-16T17:52:19.062Z,97688.89
2019-03-16T17:57:24.464Z,97685.16
2019-03-16T18:02:29.747Z,97682.23
2019-03-16T18:07:35.428Z,97674.55
2019-03-16T18:12:40.782Z,97663.58
2019-03-16T18:17:46.073Z,97673.11
2019-03-16T18:22:51.307Z,97660.78
2019-03-16T18:27:56.698Z,97659.45
2019-03-16T18:33:01.935Z,97660.14
2019-03-16T18:38:07.226Z,97662.03
2019-03-16T18:43:13.525Z,97658.52
2019-03-16T18:48:18.802Z,97652.19
2019-03-16T18:53:24.063Z,97650.53
2019-03-16T18:58:37.237Z,97636.62
2019-03-16T19:03:37.599Z,97636.73
2019-03-16T19:08:42.930Z,97621.78
2019-03-16T19:13:48.209Z,97610.92
2019-03-16T19:18:53.544Z,97625.82
2019-03-16T19:23:59.048Z,97610.79
2019-03-16T19:29:05.308Z,97616.75
2019-03-16T19:34:10.717Z,97613.30
2019-03-16T19:39:17.057Z,97601.91
2019-03-16T19:44:22.383Z,97602.20
2019-03-16T19:49:27.996Z,97612.16
2019-03-16T19:54:34.263Z,97615.42
2019-03-16T19:59:39.454Z,97611.27
2019-03-16T20:04:44.644Z,97612.47
2019-03-16T20:09:49.911Z,97595.81
2019-03-16T20:14:55.318Z,97585.55
2019-03-16T20:20:02.824Z,97563.70
2019-03-16T20:25:08.209Z,97568.30
2019-03-16T20:30:14.542Z,97560.19
2019-03-16T20:35:19.785Z,97548.00
2019-03-16T20:40:25.094Z,97557.40
2019-03-16T20:45:30.501Z,97550.52
2019-03-16T20:50:36.110Z,97538.69
2019-03-16T20:55:41.398Z,97523.36
2019-03-16T21:00:46.587Z,97523.52
2019-03-16T21:05:52.063Z,97508.08
2019-03-16T21:10:59.466Z,97515.20
2019-03-16T21:16:04.702Z,97512.28
2019-03-16T21:21:10.037Z,97501.93
2019-03-16T21:26:15.366Z,97498.63
2019-03-16T21:31:20.572Z,97495.36
2019-03-16T21:36:25.826Z,97487.20
2019-03-16T21:41:32.083Z,97480.68
2019-03-16T21:46:37.310Z,97468.81
2019-03-16T21:51:43.515Z,97465.61
2019-03-16T21:56:48.893Z,97457.92
2019-03-16T22:01:54.395Z,97455.67
2019-03-16T22:06:59.696Z,97451.20
2019-03-16T22:12:05.631Z,97431.58
2019-03-16T22:17:11.327Z,97434.30
2019-03-16T22:22:16.604Z,97410.05
2019-03-16T22:27:21.925Z,97420.59
2019-03-16T22:32:27.132Z,97410.66
2019-03-16T22:37:32.610Z,97421.75
2019-03-16T22:42:38.009Z,97407.11
2019-03-16T22:47:44.590Z,97412.94
2019-03-16T22:52:49.902Z,97396.63
2019-03-16T22:57:55.127Z,97394.48
2019-03-16T23:03:00.369Z,97392.53
2019-03-16T23:08:06.073Z,97378.98
2019-03-16T23:13:11.618Z,97380.72
2019-03-16T23:18:16.870Z,97368.28
2019-03-16T23:23:22.324Z,97357.43
2019-03-16T23:28:28.668Z,97355.63
2019-03-16T23:33:34.386Z,97363.16
2019-03-16T23:38:39.691Z,97349.44
2019-03-16T23:43:44.975Z,97338.97
2019-03-16T23:48:50.291Z,97345.94
2019-03-16T23:53:55.744Z,97347.44
2019-03-16T23:59:01.453Z,97334.30
